createdAt,value
2022-11-21T00:02:16.159Z,5.65
2022-11-21T00:05:20.756Z,6.15
2022-11-21T00:08:24.966Z,6.95
2022-11-21T00:11:29.425Z,6.50
2022-11-21T00:14:34.468Z,5.93
2022-11-21T00:17:39.222Z,6.28
2022-11-21T00:20:44.724Z,6.72
2022-11-21T00:23:49.539Z,6.68
2022-11-21T00:26:54.040Z,7.65
2022-11-21T00:29:58.114Z,7.63
2022-11-21T00:33:02.564Z,6.55
2022-11-21T00:36:09.444Z,6.47
2022-11-21T00:39:14.106Z,6.43
2022-11-21T00:42:18.683Z,6.60
2022-11-21T00:45:24.583Z,6.25
2022-11-21T00:48:30.037Z,7.40
2022-11-21T00:51:34.616Z,7.50
2022-11-21T00:54:39.119Z,6.25
2022-11-21T00:57:43.768Z,6.32
2022-11-21T01:00:48.252Z,6.43
2022-11-21T01:03:52.566Z,5.88
2022-11-21T01:06:56.905Z,5.63
2022-11-21T01:10:01.566Z,5.70
2022-11-21T01:13:06.175Z,6.40
2022-11-21T01:16:17.462Z,5.72
2022-11-21T01:19:22.284Z,6.25
2022-11-21T01:22:26.962Z,5.78
2022-11-21T01:25:35.097Z,5.80
2022-11-21T01:28:40.292Z,6.10
2022-11-21T01:31:44.934Z,6.97
2022-11-21T01:34:49.827Z,6.57
2022-11-21T01:37:54.531Z,7.38
2022-11-21T01:40:59.126Z,6.68
2022-11-21T01:44:14.130Z,6.75
2022-11-21T01:47:19.673Z,7.22
2022-11-21T01:50:24.618Z,6.80
2022-11-21T01:53:29.050Z,7.25
2022-11-21T01:56:57.909Z,6.70
2022-11-21T02:00:09.378Z,6.40
2022-11-21T02:03:20.255Z,6.22
2022-11-21T02:06:25.854Z,7.30
2022-11-21T02:09:33.466Z,6.80
2022-11-21T02:12:51.383Z,6.65
2022-11-21T02:15:56.437Z,6.47
2022-11-21T02:19:01.504Z,5.35
2022-11-21T02:22:19.412Z,6.90
2022-11-21T02:25:31.274Z,5.78
2022-11-21T02:28:36.206Z,6.78
2022-11-21T02:31:41.063Z,6.47
2022-11-21T02:34:45.544Z,5.88
2022-11-21T02:38:20.860Z,6.32
2022-11-21T02:41:27.830Z,6.43
2022-11-21T02:45:13.617Z,6.10
2022-11-21T02:48:18.546Z,5.97
2022-11-21T02:51:23.041Z,5.50
2022-11-21T02:54:28.117Z,5.53
2022-11-21T02:57:32.984Z,7.07
2022-11-21T03:00:39.984Z,6.20
2022-11-21T03:03:44.473Z,6.93
2022-11-21T03:06:48.689Z,6.25
2022-11-21T03:09:53.097Z,6.78
2022-11-21T03:13:01.375Z,7.35
2022-11-21T03:16:06.181Z,6.90
2022-11-21T03:19:10.756Z,7.72
2022-11-21T03:22:15.903Z,6.65
2022-11-21T03:25:21.204Z,6.20
2022-11-21T03:28:25.599Z,6.82
2022-11-21T03:31:30.080Z,6.80
2022-11-21T03:34:34.885Z,6.50
2022-11-21T03:37:39.823Z,6.82
2022-11-21T03:40:44.451Z,6.22
2022-11-21T03:43:48.846Z,6.38
2022-11-21T03:46:53.148Z,6.28
2022-11-21T03:49:57.299Z,6.47
2022-11-21T03:53:01.670Z,5.65
2022-11-21T03:56:06.052Z,6.55
2022-11-21T03:59:10.391Z,7.07
2022-11-21T04:02:14.578Z,8.32
2022-11-21T04:05:19.346Z,5.90
2022-11-21T04:08:25.214Z,6.07
2022-11-21T04:11:29.809Z,7.78
2022-11-21T04:14:34.520Z,7.03
2022-11-21T04:17:39.608Z,6.60
2022-11-21T04:20:44.735Z,5.93
2022-11-21T04:23:49.589Z,6.03
2022-11-21T04:26:55.501Z,6.93
2022-11-21T04:30:00.210Z,5.95
2022-11-21T04:33:04.668Z,6.88
2022-11-21T04:36:09.515Z,6.63
2022-11-21T04:39:13.814Z,6.25
2022-11-21T04:42:18.552Z,7.30
2022-11-21T04:45:23.375Z,8.77
2022-11-21T04:48:28.181Z,7.45
2022-11-21T04:51:33.114Z,6.85
2022-11-21T04:54:37.649Z,7.28
2022-11-21T04:57:41.855Z,8.55
2022-11-21T05:00:46.315Z,7.68
2022-11-21T05:03:52.819Z,7.50
2022-11-21T05:06:57.319Z,7.75
2022-11-21T05:10:01.691Z,9.07
2022-11-21T05:13:21.098Z,8.48
2022-11-21T05:16:25.421Z,7.43
2022-11-21T05:19:30.127Z,8.38
2022-11-21T05:22:34.660Z,7.40
2022-11-21T05:25:40.260Z,6.95
2022-11-21T05:28:45.028Z,6.85
2022-11-21T05:31:49.375Z,6.35
2022-11-21T05:34:53.761Z,6.20
2022-11-21T05:37:59.291Z,6.05
2022-11-21T05:41:03.781Z,7.63
2022-11-21T05:44:08.490Z,7.32
2022-11-21T05:47:13.021Z,6.00
2022-11-21T05:50:17.784Z,7.65
2022-11-21T05:53:22.252Z,6.65
2022-11-21T05:56:27.021Z,8.18
2022-11-21T05:59:31.591Z,8.80
2022-11-21T06:02:54.348Z,8.45
2022-11-21T06:06:15.280Z,6.20
2022-11-21T06:09:19.499Z,6.30
2022-11-21T06:12:25.700Z,6.25
2022-11-21T06:15:30.289Z,8.25
2022-11-21T06:18:40.908Z,8.90
2022-11-21T06:21:45.376Z,8.23
2022-11-21T06:24:49.860Z,8.43
2022-11-21T06:27:54.592Z,6.95
2022-11-21T06:31:06.600Z,6.93
2022-11-21T06:34:11.767Z,7.40
2022-11-21T06:37:16.745Z,7.25
2022-11-21T06:40:21.497Z,6.88
2022-11-21T06:43:27.247Z,6.40
2022-11-21T06:46:31.985Z,7.25
2022-11-21T06:49:36.403Z,7.07
2022-11-21T06:52:41.719Z,7.05
2022-11-21T06:55:46.364Z,10.75
2022-11-21T06:58:50.759Z,12.70
2022-11-21T07:01:55.482Z,8.50
2022-11-21T07:04:59.902Z,12.10
2022-11-21T07:08:09.108Z,10.63
2022-11-21T07:11:25.547Z,12.43
2022-11-21T07:14:30.606Z,9.80
2022-11-21T07:17:35.026Z,9.05
2022-11-21T07:20:40.486Z,8.05
2022-11-21T07:23:45.114Z,9.20
2022-11-21T07:26:49.756Z,11.85
2022-11-21T07:29:54.373Z,10.50
2022-11-21T07:33:01.417Z,10.07
2022-11-21T07:36:07.206Z,9.65
2022-11-21T07:39:11.801Z,9.40
2022-11-21T07:42:16.174Z,7.55
2022-11-21T07:45:20.700Z,9.48
2022-11-21T07:48:25.419Z,8.30
2022-11-21T07:51:30.049Z,10.20
2022-11-21T07:54:34.372Z,7.68
2022-11-21T07:57:38.771Z,7.57
2022-11-21T08:00:43.638Z,9.98
2022-11-21T08:03:48.129Z,7.88
2022-11-21T08:06:52.452Z,9.45
2022-11-21T08:09:57.373Z,11.48
2022-11-21T08:13:01.550Z,12.95
2022-11-21T08:16:06.417Z,12.02
2022-11-21T08:19:11.164Z,10.10
2022-11-21T08:22:15.523Z,9.32
2022-11-21T08:25:20.025Z,9.27
2022-11-21T08:28:24.385Z,7.10
2022-11-21T08:31:29.374Z,7.45
2022-11-21T08:34:33.829Z,8.25
2022-11-21T08:37:38.419Z,11.77
2022-11-21T08:40:43.283Z,9.43
2022-11-21T08:43:47.748Z,10.65
2022-11-21T08:46:51.923Z,7.47
2022-11-21T08:49:56.383Z,9.80
2022-11-21T08:53:02.016Z,8.77
2022-11-21T08:56:07.107Z,7.20
2022-11-21T08:59:11.731Z,6.60
2022-11-21T09:02:16.344Z,8.13
2022-11-21T09:05:20.985Z,6.65
2022-11-21T09:08:26.084Z,6.72
2022-11-21T09:11:31.243Z,8.18
2022-11-21T09:14:54.062Z,7.25
2022-11-21T09:18:03.558Z,6.75
2022-11-21T09:21:08.080Z,7.40
2022-11-21T09:24:12.872Z,7.75
2022-11-21T09:27:17.680Z,7.32
2022-11-21T09:30:22.102Z,7.65
2022-11-21T09:33:26.685Z,6.50
2022-11-21T09:36:31.372Z,10.07
2022-11-21T09:39:36.304Z,8.40
2022-11-21T09:43:10.544Z,7.78
2022-11-21T09:46:21.650Z,6.97
2022-11-21T09:49:27.045Z,8.18
2022-11-21T09:52:41.590Z,7.43
2022-11-21T09:56:01.612Z,6.10
2022-11-21T09:59:29.143Z,6.10
2022-11-21T10:02:34.140Z,7.50
2022-11-21T10:05:54.888Z,8.63
2022-11-21T10:09:45.754Z,10.02
2022-11-21T10:13:24.116Z,7.00
2022-11-21T10:16:49.727Z,9.85
2022-11-21T10:20:06.398Z,8.48
2022-11-21T10:23:47.845Z,8.27
2022-11-21T10:27:01.159Z,6.72
2022-11-21T10:30:19.616Z,7.93
2022-11-21T10:33:43.089Z,10.68
2022-11-21T10:37:00.776Z,7.45
2022-11-21T10:40:32.228Z,10.10
2022-11-21T10:44:24.821Z,10.15
2022-11-21T10:47:37.930Z,8.77
2022-11-21T10:51:10.450Z,10.25
2022-11-21T10:54:35.832Z,9.35
2022-11-21T10:57:51.786Z,7.70
2022-11-21T11:00:59.491Z,7.80
2022-11-21T11:07:35.101Z,11.02
2022-11-21T11:10:46.370Z,12.43
2022-11-21T11:14:02.666Z,11.73
2022-11-21T11:17:15.053Z,12.77
2022-11-21T11:20:45.005Z,11.25
2022-11-21T11:23:52.384Z,10.20
2022-11-21T11:27:01.518Z,11.90
2022-11-21T11:30:08.259Z,11.57
2022-11-21T11:33:33.799Z,10.80
2022-11-21T11:37:05.754Z,11.15
2022-11-21T11:40:43.243Z,9.13
2022-11-21T11:44:33.482Z,10.50
2022-11-21T11:47:55.068Z,12.38
2022-11-21T11:51:14.058Z,9.63
2022-11-21T11:54:24.325Z,8.52
2022-11-21T11:57:32.423Z,9.20
2022-11-21T12:00:50.048Z,10.18
2022-11-21T12:04:13.313Z,8.43
2022-11-21T12:11:32.386Z,8.90
2022-11-21T12:15:15.871Z,10.30
2022-11-21T12:18:25.990Z,9.70
2022-11-21T12:21:31.330Z,8.90
2022-11-21T12:24:41.384Z,9.15
2022-11-21T12:27:54.891Z,9.43
2022-11-21T12:31:40.232Z,11.85
2022-11-21T12:35:04.220Z,9.30
2022-11-21T12:38:45.369Z,12.25
2022-11-21T12:42:55.207Z,13.23
2022-11-21T12:46:15.022Z,10.43
2022-11-21T12:49:54.723Z,11.13
2022-11-21T12:53:36.706Z,9.85
2022-11-21T12:57:04.941Z,13.20
2022-11-21T13:00:23.354Z,11.13
2022-11-21T13:04:02.334Z,9.30
2022-11-21T13:07:08.206Z,9.73
2022-11-21T13:10:16.929Z,9.43
2022-11-21T13:13:34.305Z,10.38
2022-11-21T13:16:46.644Z,11.65
2022-11-21T13:20:28.163Z,9.75
2022-11-21T13:23:42.237Z,11.75
2022-11-21T13:26:52.464Z,10.70
2022-11-21T13:30:11.785Z,10.43
2022-11-21T13:33:34.808Z,10.35
2022-11-21T13:36:41.980Z,10.40
2022-11-21T13:39:47.990Z,13.02
2022-11-21T13:43:35.537Z,8.98
2022-11-21T13:47:12.366Z,9.55
2022-11-21T13:50:42.348Z,11.82
2022-11-21T13:54:22.578Z,10.40
2022-11-21T13:57:55.134Z,10.68
2022-11-21T14:01:41.256Z,8.98
2022-11-21T14:05:01.133Z,7.82
2022-11-21T14:08:22.920Z,8.02
2022-11-21T14:11:53.373Z,7.05
2022-11-21T14:15:00.954Z,8.10
2022-11-21T14:18:05.867Z,8.05
2022-11-21T14:21:30.990Z,7.32
2022-11-21T14:24:35.333Z,6.40
2022-11-21T14:27:45.351Z,8.65
2022-11-21T14:31:03.311Z,8.57
2022-11-21T14:34:09.794Z,7.30
2022-11-21T14:37:14.303Z,6.70
2022-11-21T14:40:24.615Z,5.60
2022-11-21T14:43:32.849Z,7.00
2022-11-21T14:46:40.918Z,7.20
2022-11-21T14:50:00.818Z,8.00
2022-11-21T14:53:06.981Z,7.53
2022-11-21T14:56:25.860Z,6.47
2022-11-21T14:59:40.569Z,4.78
2022-11-21T15:02:45.400Z,5.95
2022-11-21T15:06:08.278Z,6.93
2022-11-21T15:10:25.066Z,6.38
2022-11-21T15:13:15.366Z,5.82
2022-11-21T15:16:22.149Z,5.07
2022-11-21T15:19:29.114Z,6.68
2022-11-21T15:22:39.861Z,8.23
2022-11-21T15:25:47.320Z,7.00
2022-11-21T15:28:56.813Z,6.72
2022-11-21T15:32:16.525Z,5.72
2022-11-21T15:35:42.352Z,7.30
2022-11-21T15:38:57.363Z,6.22
2022-11-21T15:42:32.829Z,5.72
2022-11-21T15:45:37.626Z,6.35
2022-11-21T15:48:45.215Z,6.97
2022-11-21T15:52:07.569Z,7.18
2022-11-21T15:55:29.290Z,8.02
2022-11-21T15:58:34.174Z,7.57
2022-11-21T16:01:39.303Z,8.13
2022-11-21T16:04:43.868Z,6.72
2022-11-21T16:07:48.921Z,5.93
2022-11-21T16:10:53.589Z,4.88
2022-11-21T16:14:01.063Z,9.27
2022-11-21T16:17:05.431Z,7.60
2022-11-21T16:20:10.230Z,7.70
2022-11-21T16:23:15.097Z,6.90
2022-11-21T16:26:20.376Z,7.05
2022-11-21T16:29:25.639Z,7.90
2022-11-21T16:32:30.180Z,8.75
2022-11-21T16:35:39.245Z,8.23
2022-11-21T16:38:44.774Z,8.10
2022-11-21T16:41:50.782Z,8.10
2022-11-21T16:44:59.394Z,10.77
2022-11-21T16:48:06.208Z,11.30
2022-11-21T16:51:22.435Z,10.23
2022-11-21T16:54:28.455Z,10.13
2022-11-21T16:57:34.195Z,11.32
2022-11-21T17:00:39.569Z,12.23
2022-11-21T17:03:47.562Z,10.75
2022-11-21T17:06:53.440Z,9.48
2022-11-21T17:09:59.693Z,9.40
2022-11-21T17:13:06.397Z,10.80
2022-11-21T17:16:14.758Z,9.65
2022-11-21T17:19:22.265Z,11.10
2022-11-21T17:22:28.535Z,11.70
2022-11-21T17:25:33.537Z,10.60
2022-11-21T17:28:45.353Z,10.63
2022-11-21T17:31:51.476Z,11.80
2022-11-21T17:34:57.574Z,12.32
2022-11-21T17:38:02.522Z,10.20
2022-11-21T17:41:11.706Z,9.63
2022-11-21T17:44:16.991Z,8.60
2022-11-21T17:47:22.358Z,9.13
2022-11-21T17:50:28.898Z,10.82
2022-11-21T17:53:39.848Z,9.77
2022-11-21T17:56:47.412Z,11.45
2022-11-21T17:59:56.368Z,10.60
2022-11-21T18:03:02.526Z,11.32
2022-11-21T18:06:10.643Z,10.00
2022-11-21T18:09:16.918Z,11.15
2022-11-21T18:12:21.988Z,9.40
2022-11-21T18:15:26.998Z,9.20
2022-11-21T18:18:34.369Z,8.82
2022-11-21T18:21:39.111Z,9.05
2022-11-21T18:24:43.881Z,9.23
2022-11-21T18:27:54.258Z,10.70
2022-11-21T18:31:14.690Z,10.68
2022-11-21T18:34:19.109Z,10.00
2022-11-21T18:37:23.648Z,9.93
2022-11-21T18:40:28.638Z,11.68
2022-11-21T18:43:33.615Z,11.00
2022-11-21T18:46:38.955Z,10.80
2022-11-21T18:49:43.489Z,10.38
2022-11-21T18:52:48.265Z,10.93
2022-11-21T18:55:52.972Z,10.77
2022-11-21T18:58:59.098Z,11.82
2022-11-21T19:02:04.525Z,11.10
2022-11-21T19:05:09.623Z,9.38
2022-11-21T19:08:14.671Z,10.48
2022-11-21T19:11:20.799Z,9.77
2022-11-21T19:14:25.372Z,9.43
2022-11-21T19:17:30.156Z,10.68
2022-11-21T19:20:36.629Z,10.10
2022-11-21T19:23:43.433Z,8.13
2022-11-21T19:26:50.331Z,7.82
2022-11-21T19:29:55.331Z,8.18
2022-11-21T19:33:00.103Z,8.35
2022-11-21T19:36:12.776Z,8.25
2022-11-21T19:39:18.169Z,6.75
2022-11-21T19:42:22.942Z,7.22
2022-11-21T19:45:27.471Z,6.70
2022-11-21T19:48:32.082Z,8.00
2022-11-21T19:51:41.921Z,7.30
2022-11-21T19:54:46.802Z,5.63
2022-11-21T19:57:51.805Z,6.05
2022-11-21T20:01:13.201Z,5.30
2022-11-21T20:04:17.733Z,5.97
2022-11-21T20:07:22.390Z,5.47
2022-11-21T20:10:26.791Z,5.47
2022-11-21T20:13:33.365Z,6.60
2022-11-21T20:16:41.744Z,6.75
2022-11-21T20:19:50.588Z,5.88
2022-11-21T20:22:55.344Z,6.07
2022-11-21T20:26:00.036Z,5.88
2022-11-21T20:29:06.429Z,4.63
2022-11-21T20:32:12.075Z,4.80
2022-11-21T20:35:16.859Z,5.55
2022-11-21T20:38:24.435Z,5.65
2022-11-21T20:41:35.740Z,5.03
2022-11-21T20:48:10.180Z,5.05
2022-11-21T20:54:41.553Z,4.28
2022-11-21T20:57:46.325Z,4.05
2022-11-21T21:00:51.038Z,4.50
2022-11-21T21:03:56.183Z,4.38
2022-11-21T21:07:01.772Z,5.05
2022-11-21T21:10:07.737Z,4.10
2022-11-21T21:13:12.272Z,4.95
2022-11-21T21:16:23.431Z,4.03
2022-11-21T21:19:28.613Z,6.22
2022-11-21T21:22:33.473Z,4.90
2022-11-21T21:25:38.678Z,4.22
2022-11-21T21:28:44.072Z,5.82
2022-11-21T21:31:52.762Z,5.60
2022-11-21T21:34:57.583Z,5.15
2022-11-21T21:38:07.593Z,4.80
2022-11-21T21:41:14.475Z,4.20
2022-11-21T21:44:19.752Z,4.75
2022-11-21T21:47:24.604Z,4.47
2022-11-21T21:50:29.397Z,3.85
2022-11-21T21:53:38.594Z,3.20
2022-11-21T21:56:44.254Z,4.50
2022-11-21T21:59:48.646Z,4.13
2022-11-21T22:02:53.222Z,4.13
2022-11-21T22:06:06.026Z,4.03
2022-11-21T22:09:10.894Z,4.13
2022-11-21T22:12:16.040Z,3.30
2022-11-21T22:15:20.399Z,4.43
2022-11-21T22:18:25.836Z,3.90
2022-11-21T22:21:36.476Z,4.07
2022-11-21T22:24:41.315Z,3.92
2022-11-21T22:27:46.389Z,4.13
2022-11-21T22:30:56.154Z,3.60
2022-11-21T22:34:01.027Z,4.82
2022-11-21T22:37:05.940Z,4.47
2022-11-21T22:40:11.789Z,3.92
2022-11-21T22:43:16.539Z,3.78
2022-11-21T22:46:22.144Z,3.63
2022-11-21T22:49:26.927Z,3.92
2022-11-21T22:52:32.765Z,4.40
2022-11-21T22:55:37.395Z,4.30
2022-11-21T22:58:41.998Z,3.35
2022-11-21T23:01:46.276Z,3.38
2022-11-21T23:04:51.175Z,3.22
2022-11-21T23:07:55.720Z,2.38
2022-11-21T23:11:12.368Z,3.22
2022-11-21T23:14:17.970Z,4.95
2022-11-21T23:17:22.157Z,5.00
2022-11-21T23:20:26.763Z,4.75
2022-11-21T23:23:31.752Z,5.80
2022-11-21T23:26:36.542Z,5.15
2022-11-21T23:29:41.259Z,4.13
2022-11-21T23:32:45.444Z,3.63
2022-11-21T23:35:50.100Z,3.13
2022-11-21T23:38:54.930Z,3.22
2022-11-21T23:41:59.860Z,3.50
2022-11-21T23:45:05.407Z,3.95
2022-11-21T23:48:10.010Z,3.75
2022-11-21T23:51:15.766Z,3.40
2022-11-21T23:54:20.223Z,2.80
2022-11-21T23:57:24.660Z,3.42
